SCKD weather

El Cardal Airport
Rio Bueno, Los Ríos Region, Chile

Public forecast

Using degrees Celsius for public forecast. Weather courtesy of forecast.io.

METAR (pilot weather report)

Report is more than 6 hours old.

Closest report is Cañal Bajo Carlos - Hott Siebert Airport, 19.2 nm (35.5 km) WSW. Retrieved 2019/02/22 21:00 UTC (8 hours ago):

SCJO 222100Z 07005KT 9999 BKN015 17/14 Q1019

TAF (pilot weather forecast)

Forecast is more than 12 hours old.

Closest forecast is Cañal Bajo Carlos - Hott Siebert Airport, 19.2 nm (35.5 km) WSW. Retrieved 2019/02/22 12:33 UTC (16 hours ago):

TAF TAF COR SCJO 221027Z 2212/2224 19006KT 9999 FEW015 OVC025 TN10/2212Z TX21/2219Z TEMPO 2212/2216 13005KT 8000 -SHRA BKN013 OVC020 BECMG 2216/2218 VRB03KT BKN030 BECMG 2219/2221 15008KT BKN035 BECMG 2222/2224 19010KT SCT040